sensor_id;sensor_type;location;lat;lon;timestamp;pressure;altitude;pressure_sealevel;temperature;humidity
5651;BME280;40241;52.684;9.758;2023-04-05T00:02:05;102309.53;;;2.59;46.65
5651;BME280;40241;52.684;9.758;2023-04-05T00:04:31;102310.69;;;2.62;46.72
5651;BME280;40241;52.684;9.758;2023-04-05T00:06:59;102302.91;;;2.60;46.50
5651;BME280;40241;52.684;9.758;2023-04-05T00:09:26;102311.47;;;2.59;46.75
5651;BME280;40241;52.684;9.758;2023-04-05T00:11:52;102304.09;;;2.56;46.53
5651;BME280;40241;52.684;9.758;2023-04-05T00:14:18;102306.06;;;2.52;46.58
5651;BME280;40241;52.684;9.758;2023-04-05T00:16:43;102304.91;;;2.49;46.75
5651;BME280;40241;52.684;9.758;2023-04-05T00:19:09;102293.28;;;2.49;46.75
5651;BME280;40241;52.684;9.758;2023-04-05T00:21:37;102301.44;;;2.49;46.74
5651;BME280;40241;52.684;9.758;2023-04-05T00:24:03;102303.00;;;2.46;46.79
5651;BME280;40241;52.684;9.758;2023-04-05T00:26:29;102302.63;;;2.44;46.84
5651;BME280;40241;52.684;9.758;2023-04-05T00:28:54;102303.84;;;2.33;46.91
5651;BME280;40241;52.684;9.758;2023-04-05T00:31:20;102301.94;;;2.26;46.97
5651;BME280;40241;52.684;9.758;2023-04-05T00:33:45;102308.16;;;2.19;47.08
5651;BME280;40241;52.684;9.758;2023-04-05T00:36:13;102300.03;;;2.12;47.32
5651;BME280;40241;52.684;9.758;2023-04-05T00:38:39;102295.78;;;2.08;47.58
5651;BME280;40241;52.684;9.758;2023-04-05T00:41:05;102301.22;;;2.04;47.29
5651;BME280;40241;52.684;9.758;2023-04-05T00:43:31;102298.91;;;1.99;47.38
5651;BME280;40241;52.684;9.758;2023-04-05T00:45:56;102295.41;;;1.99;47.73
5651;BME280;40241;52.684;9.758;2023-04-05T00:48:22;102291.53;;;2.03;47.75
5651;BME280;40241;52.684;9.758;2023-04-05T00:50:49;102300.47;;;2.07;47.63
5651;BME280;40241;52.684;9.758;2023-04-05T00:53:16;102286.88;;;2.07;47.58
5651;BME280;40241;52.684;9.758;2023-04-05T00:55:42;102285.69;;;2.12;47.70
5651;BME280;40241;52.684;9.758;2023-04-05T00:58:09;102291.50;;;2.14;47.58
5651;BME280;40241;52.684;9.758;2023-04-05T01:00:37;102287.22;;;2.16;47.42
5651;BME280;40241;52.684;9.758;2023-04-05T01:03:03;102288.03;;;2.13;47.69
5651;BME280;40241;52.684;9.758;2023-04-05T01:05:45;102285.69;;;2.12;48.15
5651;BME280;40241;52.684;9.758;2023-04-05T01:10:38;102278.31;;;2.12;47.52
5651;BME280;40241;52.684;9.758;2023-04-05T01:13:06;102275.22;;;2.14;47.36
5651;BME280;40241;52.684;9.758;2023-04-05T01:15:33;102275.59;;;2.12;47.74
5651;BME280;40241;52.684;9.758;2023-04-05T01:17:58;102278.31;;;2.12;47.73
5651;BME280;40241;52.684;9.758;2023-04-05T01:20:29;102276.00;;;2.11;47.66
5651;BME280;40241;52.684;9.758;2023-04-05T01:23:16;102276.00;;;2.11;48.18
5651;BME280;40241;52.684;9.758;2023-04-05T01:31:17;102284.16;;;2.04;48.28
5651;BME280;40241;52.684;9.758;2023-04-05T01:33:52;102283.78;;;2.02;48.12
5651;BME280;40241;52.684;9.758;2023-04-05T01:36:26;102278.75;;;2.00;48.38
5651;BME280;40241;52.684;9.758;2023-04-05T01:38:56;102281.84;;;1.99;47.87
5651;BME280;40241;52.684;9.758;2023-04-05T01:41:22;102271.81;;;1.96;47.85
5651;BME280;40241;52.684;9.758;2023-04-05T01:43:48;102274.91;;;1.94;48.11
5651;BME280;40241;52.684;9.758;2023-04-05T01:46:13;102266.00;;;1.94;48.15
5651;BME280;40241;52.684;9.758;2023-04-05T01:48:38;102270.63;;;1.93;48.40
5651;BME280;40241;52.684;9.758;2023-04-05T01:51:04;102272.56;;;1.93;48.29
5651;BME280;40241;52.684;9.758;2023-04-05T01:53:30;102260.53;;;1.97;48.36
5651;BME280;40241;52.684;9.758;2023-04-05T01:56:01;102260.13;;;1.99;48.56
5651;BME280;40241;52.684;9.758;2023-04-05T01:58:27;102256.28;;;1.96;48.45
5651;BME280;40241;52.684;9.758;2023-04-05T02:00:54;102264.03;;;1.98;48.53
5651;BME280;40241;52.684;9.758;2023-04-05T02:03:23;102264.81;;;1.95;48.51
5651;BME280;40241;52.684;9.758;2023-04-05T02:05:48;102261.72;;;1.93;48.66
5651;BME280;40241;52.684;9.758;2023-04-05T02:08:13;102266.00;;;1.87;48.45
5651;BME280;40241;52.684;9.758;2023-04-05T02:10:40;102269.13;;;1.78;48.47
5651;BME280;40241;52.684;9.758;2023-04-05T02:13:05;102262.53;;;1.79;48.45
5651;BME280;40241;52.684;9.758;2023-04-05T02:15:31;102256.72;;;1.77;48.46
5651;BME280;40241;52.684;9.758;2023-04-05T02:17:58;102259.47;;;1.74;48.71
5651;BME280;40241;52.684;9.758;2023-04-05T02:20:26;102253.66;;;1.72;48.78
5651;BME280;40241;52.684;9.758;2023-04-05T02:22:51;102254.06;;;1.70;48.61
5651;BME280;40241;52.684;9.758;2023-04-05T02:25:18;102253.28;;;1.70;48.69
5651;BME280;40241;52.684;9.758;2023-04-05T02:27:43;102256.78;;;1.70;48.74
5651;BME280;40241;52.684;9.758;2023-04-05T02:30:09;102246.28;;;1.69;48.69
5651;BME280;40241;52.684;9.758;2023-04-05T02:32:34;102245.91;;;1.67;48.96
5651;BME280;40241;52.684;9.758;2023-04-05T02:35:00;102244.38;;;1.66;48.99
5651;BME280;40241;52.684;9.758;2023-04-05T02:37:25;102252.13;;;1.64;48.94
5651;BME280;40241;52.684;9.758;2023-04-05T02:39:51;102242.81;;;1.65;49.16
5651;BME280;40241;52.684;9.758;2023-04-05T02:42:17;102236.25;;;1.66;49.13
5651;BME280;40241;52.684;9.758;2023-04-05T02:44:42;102235.44;;;1.69;49.45
5651;BME280;40241;52.684;9.758;2023-04-05T02:47:07;102238.56;;;1.67;49.26
5651;BME280;40241;52.684;9.758;2023-04-05T02:49:33;102237.78;;;1.67;49.38
5651;BME280;40241;52.684;9.758;2023-04-05T02:51:58;102229.63;;;1.67;49.35
5651;BME280;40241;52.684;9.758;2023-04-05T02:54:23;102236.25;;;1.66;49.52
5651;BME280;40241;52.684;9.758;2023-04-05T02:56:49;102231.19;;;1.64;49.52
5651;BME280;40241;52.684;9.758;2023-04-05T02:59:14;102229.28;;;1.61;49.33
5651;BME280;40241;52.684;9.758;2023-04-05T03:01:41;102231.22;;;1.57;49.30
5651;BME280;40241;52.684;9.758;2023-04-05T03:04:11;102231.22;;;1.53;49.16
5651;BME280;40241;52.684;9.758;2023-04-05T03:06:37;102226.97;;;1.52;49.56
5651;BME280;40241;52.684;9.758;2023-04-05T03:09:03;102229.69;;;1.52;49.20
5651;BME280;40241;52.684;9.758;2023-04-05T03:11:29;102225.06;;;1.46;48.94
5651;BME280;40241;52.684;9.758;2023-04-05T03:13:54;102226.22;;;1.38;49.28
5651;BME280;40241;52.684;9.758;2023-04-05T03:16:20;102222.75;;;1.30;49.42
5651;BME280;40241;52.684;9.758;2023-04-05T03:18:45;102220.44;;;1.29;49.60
5651;BME280;40241;52.684;9.758;2023-04-05T03:21:10;102218.13;;;1.27;49.32
5651;BME280;40241;52.684;9.758;2023-04-05T03:23:36;102220.44;;;1.25;49.65
5651;BME280;40241;52.684;9.758;2023-04-05T03:26:02;102222.38;;;1.25;49.31
5651;BME280;40241;52.684;9.758;2023-04-05T03:28:31;102220.06;;;1.20;49.80
5651;BME280;40241;52.684;9.758;2023-04-05T03:30:57;102219.28;;;1.19;49.60
5651;BME280;40241;52.684;9.758;2023-04-05T03:33:23;102215.81;;;1.19;49.72
5651;BME280;40241;52.684;9.758;2023-04-05T03:35:48;102214.28;;;1.18;49.92
5651;BME280;40241;52.684;9.758;2023-04-05T03:38:14;102213.84;;;1.16;49.85
5651;BME280;40241;52.684;9.758;2023-04-05T03:40:39;102213.09;;;1.15;49.84
5651;BME280;40241;52.684;9.758;2023-04-05T03:43:05;102209.63;;;1.15;49.86
5651;BME280;40241;52.684;9.758;2023-04-05T03:45:30;102208.06;;;1.14;49.77
5651;BME280;40241;52.684;9.758;2023-04-05T03:47:57;102211.56;;;1.11;49.97
5651;BME280;40241;52.684;9.758;2023-04-05T03:50:22;102210.78;;;1.10;49.75
5651;BME280;40241;52.684;9.758;2023-04-05T03:52:48;102213.88;;;1.09;49.68
5651;BME280;40241;52.684;9.758;2023-04-05T03:55:13;102211.16;;;1.05;49.77
5651;BME280;40241;52.684;9.758;2023-04-05T03:57:41;102211.56;;;1.04;49.81
5651;BME280;40241;52.684;9.758;2023-04-05T04:00:07;102218.16;;;0.99;49.71
5651;BME280;40241;52.684;9.758;2023-04-05T04:02:48;102212.72;;;0.92;50.36
5651;BME280;40241;52.684;9.758;2023-04-05T04:05:15;102218.94;;;0.89;49.83
5651;BME280;40241;52.684;9.758;2023-04-05T04:07:42;102207.72;;;0.87;50.10
5651;BME280;40241;52.684;9.758;2023-04-05T04:10:09;102218.94;;;0.89;49.93
5651;BME280;40241;52.684;9.758;2023-04-05T04:12:35;102210.81;;;0.89;49.95
5651;BME280;40241;52.684;9.758;2023-04-05T04:15:00;102217.78;;;0.87;49.75
5651;BME280;40241;52.684;9.758;2023-04-05T04:17:30;102213.91;;;0.81;50.21
5651;BME280;40241;52.684;9.758;2023-04-05T04:19:56;102214.28;;;0.79;50.38
5651;BME280;40241;52.684;9.758;2023-04-05T04:22:23;102216.63;;;0.81;50.13
5651;BME280;40241;52.684;9.758;2023-04-05T04:24:51;102222.41;;;0.79;50.46
5651;BME280;40241;52.684;9.758;2023-04-05T04:27:18;102220.88;;;0.78;50.38
5651;BME280;40241;52.684;9.758;2023-04-05T04:29:47;102219.69;;;0.75;50.18
5651;BME280;40241;52.684;9.758;2023-04-05T04:32:14;102221.63;;;0.75;49.97
5651;BME280;40241;52.684;9.758;2023-04-05T04:34:40;102227.84;;;0.72;50.11
5651;BME280;40241;52.684;9.758;2023-04-05T04:37:14;102221.25;;;0.73;50.55
5651;BME280;40241;52.684;9.758;2023-04-05T04:39:45;102222.78;;;0.67;50.25
5651;BME280;40241;52.684;9.758;2023-04-05T04:42:12;102231.69;;;0.64;50.41
5651;BME280;40241;52.684;9.758;2023-04-05T04:44:37;102225.47;;;0.63;50.75
5651;BME280;40241;52.684;9.758;2023-04-05T04:47:03;102216.97;;;0.51;50.59
5651;BME280;40241;52.684;9.758;2023-04-05T04:49:31;102227.41;;;0.45;50.52
5651;BME280;40241;52.684;9.758;2023-04-05T04:51:56;102221.19;;;0.48;50.73
5651;BME280;40241;52.684;9.758;2023-04-05T04:54:23;102231.28;;;0.51;50.95
5651;BME280;40241;52.684;9.758;2023-04-05T04:56:48;102220.84;;;0.53;50.50
5651;BME280;40241;52.684;9.758;2023-04-05T04:59:14;102226.25;;;0.53;50.52
5651;BME280;40241;52.684;9.758;2023-04-05T05:01:40;102224.72;;;0.56;50.79
5651;BME280;40241;52.684;9.758;2023-04-05T05:04:05;102225.47;;;0.53;50.74
5651;BME280;40241;52.684;9.758;2023-04-05T05:06:30;102226.25;;;0.53;50.87
5651;BME280;40241;52.684;9.758;2023-04-05T05:08:56;102223.94;;;0.55;50.76
5651;BME280;40241;52.684;9.758;2023-04-05T05:11:21;102228.59;;;0.58;50.43
5651;BME280;40241;52.684;9.758;2023-04-05T05:13:46;102229.72;;;0.57;50.48
5651;BME280;40241;52.684;9.758;2023-04-05T05:16:12;102233.97;;;0.55;50.49
5651;BME280;40241;52.684;9.758;2023-04-05T05:18:37;102236.69;;;0.55;51.03
5651;BME280;40241;52.684;9.758;2023-04-05T05:21:05;102232.84;;;0.56;50.69
5651;BME280;40241;52.684;9.758;2023-04-05T05:23:31;102228.19;;;0.56;51.29
5651;BME280;40241;52.684;9.758;2023-04-05T05:25:57;102231.28;;;0.62;50.84
5651;BME280;40241;52.684;9.758;2023-04-05T05:28:25;102239.03;;;0.67;50.80
5651;BME280;40241;52.684;9.758;2023-04-05T05:30:51;102221.25;;;0.69;50.98
5651;BME280;40241;52.684;9.758;2023-04-05T05:33:16;102219.72;;;0.72;50.92
5651;BME280;40241;52.684;9.758;2023-04-05T05:35:42;102217.75;;;0.72;51.09
5651;BME280;40241;52.684;9.758;2023-04-05T05:38:08;102221.63;;;0.71;50.89
5651;BME280;40241;52.684;9.758;2023-04-05T05:40:33;102216.22;;;0.75;51.05
5651;BME280;40241;52.684;9.758;2023-04-05T05:42:58;102213.88;;;0.77;51.03
5651;BME280;40241;52.684;9.758;2023-04-05T05:45:24;102220.88;;;0.78;50.93
5651;BME280;40241;52.684;9.758;2023-04-05T05:47:49;102212.34;;;0.83;51.46
5651;BME280;40241;52.684;9.758;2023-04-05T05:50:15;102206.94;;;0.87;51.42
5651;BME280;40241;52.684;9.758;2023-04-05T05:52:41;102215.81;;;0.91;51.22
5651;BME280;40241;52.684;9.758;2023-04-05T05:55:06;102210.78;;;0.93;51.48
5651;BME280;40241;52.684;9.758;2023-04-05T05:57:32;102218.94;;;1.00;51.60
5651;BME280;40241;52.684;9.758;2023-04-05T05:59:57;102210.41;;;1.05;51.34
5651;BME280;40241;52.684;9.758;2023-04-05T06:02:23;102214.25;;;1.07;50.98
5651;BME280;40241;52.684;9.758;2023-04-05T06:04:48;102212.72;;;1.06;51.33
5651;BME280;40241;52.684;9.758;2023-04-05T06:07:14;102213.50;;;1.10;50.92
5651;BME280;40241;52.684;9.758;2023-04-05T06:09:39;102215.44;;;1.13;51.18
5651;BME280;40241;52.684;9.758;2023-04-05T06:12:05;102210.00;;;1.13;51.23
5651;BME280;40241;52.684;9.758;2023-04-05T06:14:30;102218.50;;;1.19;51.33
5651;BME280;40241;52.684;9.758;2023-04-05T06:16:55;102219.66;;;1.25;51.36
5651;BME280;40241;52.684;9.758;2023-04-05T06:19:21;102231.69;;;1.31;51.57
5651;BME280;40241;52.684;9.758;2023-04-05T06:21:47;102215.00;;;1.36;51.32
5651;BME280;40241;52.684;9.758;2023-04-05T06:24:12;102214.59;;;1.41;51.39
5651;BME280;40241;52.684;9.758;2023-04-05T06:26:37;102211.50;;;1.46;51.23
5651;BME280;40241;52.684;9.758;2023-04-05T06:29:03;102218.84;;;1.52;51.41
5651;BME280;40241;52.684;9.758;2023-04-05T06:31:33;102213.41;;;1.56;51.34
5651;BME280;40241;52.684;9.758;2023-04-05T06:33:59;102220.75;;;1.63;51.60
5651;BME280;40241;52.684;9.758;2023-04-05T06:36:24;102216.88;;;1.64;51.60
5651;BME280;40241;52.684;9.758;2023-04-05T06:38:51;102223.03;;;1.71;51.51
5651;BME280;40241;52.684;9.758;2023-04-05T06:41:16;102218.00;;;1.77;51.60
5651;BME280;40241;52.684;9.758;2023-04-05T06:43:41;102215.22;;;1.84;51.74
5651;BME280;40241;52.684;9.758;2023-04-05T06:46:07;102229.56;;;1.91;51.62
5651;BME280;40241;52.684;9.758;2023-04-05T06:48:35;102213.25;;;1.95;51.71
5651;BME280;40241;52.684;9.758;2023-04-05T06:51:01;102217.50;;;2.03;51.64
5651;BME280;40241;52.684;9.758;2023-04-05T06:53:27;102208.91;;;2.11;51.87
5651;BME280;40241;52.684;9.758;2023-04-05T06:55:54;102206.56;;;2.17;51.77
5651;BME280;40241;52.684;9.758;2023-04-05T06:58:20;102211.53;;;2.25;51.67
5651;BME280;40241;52.684;9.758;2023-04-05T07:00:46;102213.81;;;2.34;51.81
5651;BME280;40241;52.684;9.758;2023-04-05T07:03:11;102202.50;;;2.43;51.96
5651;BME280;40241;52.684;9.758;2023-04-05T07:05:36;102210.59;;;2.53;52.03
5651;BME280;40241;52.684;9.758;2023-04-05T07:08:02;102205.88;;;2.61;52.09
5651;BME280;40241;52.684;9.758;2023-04-05T07:10:27;102210.88;;;2.69;51.96
5651;BME280;40241;52.684;9.758;2023-04-05T07:12:53;102209.66;;;2.77;51.76
5651;BME280;40241;52.684;9.758;2023-04-05T07:15:18;102199.84;;;2.90;52.34
5651;BME280;40241;52.684;9.758;2023-04-05T07:17:43;102203.22;;;3.01;52.15
5651;BME280;40241;52.684;9.758;2023-04-05T07:20:09;102202.38;;;3.12;52.03
5651;BME280;40241;52.684;9.758;2023-04-05T07:22:35;102202.19;;;3.26;52.24
5651;BME280;40241;52.684;9.758;2023-04-05T07:25:00;102198.16;;;3.41;51.95
5651;BME280;40241;52.684;9.758;2023-04-05T07:27:27;102199.94;;;3.58;52.04
5651;BME280;40241;52.684;9.758;2023-04-05T07:29:54;102205.53;;;3.77;52.20
5651;BME280;40241;52.684;9.758;2023-04-05T07:32:20;102202.25;;;3.93;51.74
5651;BME280;40241;52.684;9.758;2023-04-05T07:34:45;102200.88;;;4.08;51.64
5651;BME280;40241;52.684;9.758;2023-04-05T07:37:12;102201.88;;;4.21;51.61
5651;BME280;40241;52.684;9.758;2023-04-05T07:39:38;102219.94;;;4.35;51.63
5651;BME280;40241;52.684;9.758;2023-04-05T07:42:03;102206.53;;;4.47;51.53
5651;BME280;40241;52.684;9.758;2023-04-05T07:44:29;102199.38;;;4.57;51.56
5651;BME280;40241;52.684;9.758;2023-04-05T07:46:54;102195.31;;;4.69;51.25
5651;BME280;40241;52.684;9.758;2023-04-05T07:49:26;102195.84;;;4.83;51.23
5651;BME280;40241;52.684;9.758;2023-04-05T07:51:57;102191.69;;;4.98;51.26
5651;BME280;40241;52.684;9.758;2023-04-05T07:54:22;102193.75;;;5.14;50.74
5651;BME280;40241;52.684;9.758;2023-04-05T07:56:48;102206.28;;;5.31;50.92
5651;BME280;40241;52.684;9.758;2023-04-05T07:59:14;102192.03;;;5.43;50.52
5651;BME280;40241;52.684;9.758;2023-04-05T08:01:39;102194.44;;;5.61;50.68
5651;BME280;40241;52.684;9.758;2023-04-05T08:04:05;102191.75;;;5.77;50.43
5651;BME280;40241;52.684;9.758;2023-04-05T08:06:30;102192.69;;;5.90;50.15
5651;BME280;40241;52.684;9.758;2023-04-05T08:08:55;102197.03;;;6.07;49.70
5651;BME280;40241;52.684;9.758;2023-04-05T08:11:21;102191.13;;;6.25;50.02
5651;BME280;40241;52.684;9.758;2023-04-05T08:13:46;102191.16;;;6.41;49.88
5651;BME280;40241;52.684;9.758;2023-04-05T08:16:12;102191.53;;;6.59;49.63
5651;BME280;40241;52.684;9.758;2023-04-05T08:18:37;102191.19;;;6.73;49.32
5651;BME280;40241;52.684;9.758;2023-04-05T08:21:03;102191.50;;;6.91;49.22
5651;BME280;40241;52.684;9.758;2023-04-05T08:23:29;102195.44;;;7.06;48.96
5651;BME280;40241;52.684;9.758;2023-04-05T08:25:54;102184.47;;;7.22;49.08
5651;BME280;40241;52.684;9.758;2023-04-05T08:28:21;102185.50;;;7.41;48.94
5651;BME280;40241;52.684;9.758;2023-04-05T08:30:46;102184.94;;;7.62;48.98
5651;BME280;40241;52.684;9.758;2023-04-05T08:33:12;102186.28;;;7.83;48.33
5651;BME280;40241;52.684;9.758;2023-04-05T08:35:38;102183.13;;;7.97;47.55
5651;BME280;40241;52.684;9.758;2023-04-05T08:38:05;102187.31;;;8.14;47.14
5651;BME280;40241;52.684;9.758;2023-04-05T08:40:42;102182.84;;;8.32;45.81
5651;BME280;40241;52.684;9.758;2023-04-05T08:43:27;102185.69;;;8.54;46.58
5651;BME280;40241;52.684;9.758;2023-04-05T08:45:59;102186.94;;;8.87;46.52
5651;BME280;40241;52.684;9.758;2023-04-05T08:48:25;102196.09;;;9.19;46.09
5651;BME280;40241;52.684;9.758;2023-04-05T08:50:55;102172.34;;;9.25;44.52
5651;BME280;40241;52.684;9.758;2023-04-05T08:53:21;102174.13;;;9.40;45.60
5651;BME280;40241;52.684;9.758;2023-04-05T08:55:50;102177.09;;;9.67;45.19
5651;BME280;40241;52.684;9.758;2023-04-05T08:58:16;102180.59;;;9.99;45.42
5651;BME280;40241;52.684;9.758;2023-04-05T09:00:42;102174.13;;;10.14;44.66
5651;BME280;40241;52.684;9.758;2023-04-05T09:03:15;102176.38;;;10.37;44.37
5651;BME280;40241;52.684;9.758;2023-04-05T09:05:45;102172.19;;;10.64;44.62
5651;BME280;40241;52.684;9.758;2023-04-05T09:08:12;102172.66;;;10.89;44.72
5651;BME280;40241;52.684;9.758;2023-04-05T09:10:38;102173.59;;;11.13;44.67
5651;BME280;40241;52.684;9.758;2023-04-05T09:13:03;102180.16;;;11.34;44.43
5651;BME280;40241;52.684;9.758;2023-04-05T09:15:29;102169.59;;;11.51;43.83
5651;BME280;40241;52.684;9.758;2023-04-05T09:17:55;102169.75;;;11.56;43.58
5651;BME280;40241;52.684;9.758;2023-04-05T09:20:20;102166.69;;;11.72;43.70
5651;BME280;40241;52.684;9.758;2023-04-05T09:22:46;102156.81;;;11.89;43.48
5651;BME280;40241;52.684;9.758;2023-04-05T09:27:56;102163.53;;;11.97;43.04
5651;BME280;40241;52.684;9.758;2023-04-05T09:30:22;102161.00;;;12.18;42.51
5651;BME280;40241;52.684;9.758;2023-04-05T09:32:50;102163.72;;;12.27;42.25
5651;BME280;40241;52.684;9.758;2023-04-05T09:35:20;102158.31;;;12.32;41.04
5651;BME280;40241;52.684;9.758;2023-04-05T09:38:02;102159.06;;;12.42;40.28
5651;BME280;40241;52.684;9.758;2023-04-05T09:43:10;102157.72;;;12.61;41.77
5651;BME280;40241;52.684;9.758;2023-04-05T09:45:42;102164.06;;;12.76;40.69
5651;BME280;40241;52.684;9.758;2023-04-05T09:48:09;102161.19;;;12.94;41.69
5651;BME280;40241;52.684;9.758;2023-04-05T09:50:35;102156.28;;;12.89;40.91
5651;BME280;40241;52.684;9.758;2023-04-05T09:53:12;102146.31;;;12.92;39.41
5651;BME280;40241;52.684;9.758;2023-04-05T09:55:43;102157.25;;;12.86;40.94
5651;BME280;40241;52.684;9.758;2023-04-05T09:58:12;102153.81;;;12.91;40.61
5651;BME280;40241;52.684;9.758;2023-04-05T10:00:38;102150.59;;;12.93;40.83
5651;BME280;40241;52.684;9.758;2023-04-05T10:03:17;102148.59;;;12.93;41.13
5651;BME280;40241;52.684;9.758;2023-04-05T10:05:43;102150.53;;;13.02;40.87
5651;BME280;40241;52.684;9.758;2023-04-05T10:08:08;102138.59;;;12.96;40.44
5651;BME280;40241;52.684;9.758;2023-04-05T10:10:37;102134.94;;;12.75;40.02
5651;BME280;40241;52.684;9.758;2023-04-05T10:13:10;102128.44;;;12.78;40.71
5651;BME280;40241;52.684;9.758;2023-04-05T10:15:36;102134.38;;;12.86;40.26
5651;BME280;40241;52.684;9.758;2023-04-05T10:18:05;102127.53;;;12.96;40.51
5651;BME280;40241;52.684;9.758;2023-04-05T10:20:38;102126.91;;;13.01;39.90
5651;BME280;40241;52.684;9.758;2023-04-05T10:23:07;102123.81;;;13.08;40.46
5651;BME280;40241;52.684;9.758;2023-04-05T10:28:29;102126.28;;;13.20;38.49
5651;BME280;40241;52.684;9.758;2023-04-05T10:31:08;102128.56;;;13.22;38.82
5651;BME280;40241;52.684;9.758;2023-04-05T10:33:39;102126.88;;;13.24;39.39
5651;BME280;40241;52.684;9.758;2023-04-05T10:41:47;102112.09;;;13.42;38.82
5651;BME280;40241;52.684;9.758;2023-04-05T10:44:13;102108.38;;;13.60;38.93
5651;BME280;40241;52.684;9.758;2023-04-05T10:46:40;102108.09;;;13.72;39.30
5651;BME280;40241;52.684;9.758;2023-04-05T10:49:11;102103.47;;;13.98;38.09
5651;BME280;40241;52.684;9.758;2023-04-05T10:51:40;102096.47;;;14.17;38.75
5651;BME280;40241;52.684;9.758;2023-04-05T10:54:08;102095.56;;;14.26;38.58
5651;BME280;40241;52.684;9.758;2023-04-05T10:56:36;102094.59;;;14.44;37.98
5651;BME280;40241;52.684;9.758;2023-04-05T10:59:02;102091.44;;;14.36;37.99
5651;BME280;40241;52.684;9.758;2023-04-05T11:01:28;102087.50;;;14.08;37.75
5651;BME280;40241;52.684;9.758;2023-04-05T11:03:54;102088.91;;;13.83;38.13
5651;BME280;40241;52.684;9.758;2023-04-05T11:06:31;102093.91;;;13.65;36.71
5651;BME280;40241;52.684;9.758;2023-04-05T11:09:11;102087.41;;;13.53;35.79
5651;BME280;40241;52.684;9.758;2023-04-05T11:11:44;102085.25;;;13.28;37.92
5651;BME280;40241;52.684;9.758;2023-04-05T11:14:17;102080.53;;;13.19;37.58
5651;BME280;40241;52.684;9.758;2023-04-05T11:16:46;102084.44;;;13.13;38.53
5651;BME280;40241;52.684;9.758;2023-04-05T11:19:11;102082.81;;;13.06;38.53
5651;BME280;40241;52.684;9.758;2023-04-05T11:21:37;102075.53;;;12.94;38.30
5651;BME280;40241;52.684;9.758;2023-04-05T11:24:06;102082.75;;;12.92;38.50
5651;BME280;40241;52.684;9.758;2023-04-05T11:26:51;102080.56;;;12.96;38.31
5651;BME280;40241;52.684;9.758;2023-04-05T11:29:17;102079.94;;;13.01;37.81
5651;BME280;40241;52.684;9.758;2023-04-05T11:31:59;102074.56;;;12.82;33.23
5651;BME280;40241;52.684;9.758;2023-04-05T11:34:24;102072.03;;;12.55;37.22
5651;BME280;40241;52.684;9.758;2023-04-05T11:36:50;102065.75;;;12.69;37.80
5651;BME280;40241;52.684;9.758;2023-04-05T11:41:53;102063.19;;;12.66;37.23
5651;BME280;40241;52.684;9.758;2023-04-05T11:44:20;102060.28;;;12.84;38.03
5651;BME280;40241;52.684;9.758;2023-04-05T11:46:46;102061.16;;;12.90;37.75
5651;BME280;40241;52.684;9.758;2023-04-05T11:49:12;102052.88;;;12.90;37.90
5651;BME280;40241;52.684;9.758;2023-04-05T11:51:41;102053.63;;;12.91;37.71
5651;BME280;40241;52.684;9.758;2023-04-05T11:54:13;102049.06;;;13.02;38.00
5651;BME280;40241;52.684;9.758;2023-04-05T11:56:39;102050.25;;;13.54;37.94
5651;BME280;40241;52.684;9.758;2023-04-05T11:59:05;102033.53;;;14.18;37.59
5651;BME280;40241;52.684;9.758;2023-04-05T12:01:31;102053.47;;;14.37;36.85
5651;BME280;40241;52.684;9.758;2023-04-05T12:03:56;102041.84;;;14.33;37.05
5651;BME280;40241;52.684;9.758;2023-04-05T12:06:24;102042.44;;;14.62;36.70
5651;BME280;40241;52.684;9.758;2023-04-05T12:08:49;102035.72;;;14.94;36.42
5651;BME280;40241;52.684;9.758;2023-04-05T12:11:35;102037.34;;;14.81;33.92
5651;BME280;40241;52.684;9.758;2023-04-05T12:14:05;102033.09;;;14.60;36.27
5651;BME280;40241;52.684;9.758;2023-04-05T12:16:30;102029.50;;;14.79;36.31
5651;BME280;40241;52.684;9.758;2023-04-05T12:18:57;102019.56;;;15.19;36.20
5651;BME280;40241;52.684;9.758;2023-04-05T12:21:23;102019.75;;;15.72;35.61
5651;BME280;40241;52.684;9.758;2023-04-05T12:23:49;102012.56;;;15.97;35.30
5651;BME280;40241;52.684;9.758;2023-04-05T12:26:15;102012.94;;;16.21;35.24
5651;BME280;40241;52.684;9.758;2023-04-05T12:28:53;102018.09;;;16.44;33.07
5651;BME280;40241;52.684;9.758;2023-04-05T12:34:03;102003.00;;;16.62;34.79
5651;BME280;40241;52.684;9.758;2023-04-05T12:36:29;102003.78;;;16.74;34.54
5651;BME280;40241;52.684;9.758;2023-04-05T12:38:55;102007.63;;;16.82;34.79
5651;BME280;40241;52.684;9.758;2023-04-05T12:41:30;102000.03;;;17.04;32.98
5651;BME280;40241;52.684;9.758;2023-04-05T12:43:56;101989.44;;;17.19;34.23
5651;BME280;40241;52.684;9.758;2023-04-05T12:49:16;101991.97;;;17.34;31.64
5651;BME280;40241;52.684;9.758;2023-04-05T12:51:46;101993.22;;;17.22;34.04
5651;BME280;40241;52.684;9.758;2023-04-05T12:54:20;101984.91;;;17.05;32.10
5651;BME280;40241;52.684;9.758;2023-04-05T12:56:49;101981.84;;;16.87;33.86
5651;BME280;40241;52.684;9.758;2023-04-05T12:59:14;101978.03;;;16.79;34.13
5651;BME280;40241;52.684;9.758;2023-04-05T13:01:40;101973.00;;;16.83;34.25
5651;BME280;40241;52.684;9.758;2023-04-05T13:04:05;101972.50;;;17.01;33.86
5651;BME280;40241;52.684;9.758;2023-04-05T13:06:30;101963.16;;;17.09;33.39
5651;BME280;40241;52.684;9.758;2023-04-05T13:08:56;101963.63;;;17.19;33.84
5651;BME280;40241;52.684;9.758;2023-04-05T13:11:22;101962.59;;;17.39;33.62
5651;BME280;40241;52.684;9.758;2023-04-05T13:13:47;101955.53;;;17.32;33.27
5651;BME280;40241;52.684;9.758;2023-04-05T13:16:13;101948.47;;;17.09;33.50
5651;BME280;40241;52.684;9.758;2023-04-05T13:18:38;101950.25;;;17.17;33.40
5651;BME280;40241;52.684;9.758;2023-04-05T13:21:04;101957.06;;;17.33;33.21
5651;BME280;40241;52.684;9.758;2023-04-05T13:23:34;101946.44;;;17.32;33.47
5651;BME280;40241;52.684;9.758;2023-04-05T13:25:59;101946.16;;;17.46;33.48
5651;BME280;40241;52.684;9.758;2023-04-05T13:28:25;101943.13;;;17.66;33.49
5651;BME280;40241;52.684;9.758;2023-04-05T13:30:51;101943.88;;;17.61;32.81
5651;BME280;40241;52.684;9.758;2023-04-05T13:33:17;101932.00;;;17.55;32.82
5651;BME280;40241;52.684;9.758;2023-04-05T13:35:42;101944.63;;;17.45;32.29
5651;BME280;40241;52.684;9.758;2023-04-05T13:38:08;101927.50;;;17.24;32.79